Terminal Aerodrome Forecast
Issued by NWS

Home | Current Version | Previous Version | Text Only | Print | Product List | Glossary Off
Versions: 1 2 3 4 5 6 7 8 9 10 11 12 13 14 15

976
FTUS43 KFGF 210229 AAA
TAFBJI
TAF AMD
KBJI 210229Z 2102/2124 29008KT P6SM SCT035
      TEMPO 2102/2104 BKN020
     FM210500 26007KT P6SM FEW130
     FM212300 23007KT P6SM FEW250=

USA.gov is the U.S. government's official web portal to all federal, state and local government web resources and services.